sensor_id;sensor_type;location;lat;lon;timestamp;temperature;humidity
18884;DHT22;9574;47.282;9.640;2022-08-19T00:01:43;18.00;99.90
18884;DHT22;9574;47.282;9.640;2022-08-19T00:04:13;17.90;99.90
18884;DHT22;9574;47.282;9.640;2022-08-19T00:06:42;17.80;99.90
18884;DHT22;9574;47.282;9.640;2022-08-19T00:09:11;17.80;99.90
18884;DHT22;9574;47.282;9.640;2022-08-19T00:11:39;17.90;99.90
18884;DHT22;9574;47.282;9.640;2022-08-19T00:14:08;17.90;99.90
18884;DHT22;9574;47.282;9.640;2022-08-19T00:16:37;17.90;99.90
18884;DHT22;9574;47.282;9.640;2022-08-19T00:19:05;17.70;99.90
18884;DHT22;9574;47.282;9.640;2022-08-19T00:21:32;17.60;99.90
18884;DHT22;9574;47.282;9.640;2022-08-19T00:24:04;17.60;99.90
18884;DHT22;9574;47.282;9.640;2022-08-19T00:26:31;17.80;99.90
18884;DHT22;9574;47.282;9.640;2022-08-19T00:28:58;17.80;99.90
18884;DHT22;9574;47.282;9.640;2022-08-19T00:31:26;17.80;99.90
18884;DHT22;9574;47.282;9.640;2022-08-19T00:33:53;17.70;99.90
18884;DHT22;9574;47.282;9.640;2022-08-19T00:36:22;17.70;99.90
18884;DHT22;9574;47.282;9.640;2022-08-19T00:38:49;17.70;99.90
18884;DHT22;9574;47.282;9.640;2022-08-19T00:41:19;17.80;99.90
18884;DHT22;9574;47.282;9.640;2022-08-19T00:44:01;18.10;99.90
18884;DHT22;9574;47.282;9.640;2022-08-19T00:46:29;18.20;99.90
18884;DHT22;9574;47.282;9.640;2022-08-19T00:48:56;18.20;99.90
18884;DHT22;9574;47.282;9.640;2022-08-19T00:51:27;18.30;99.90
18884;DHT22;9574;47.282;9.640;2022-08-19T00:53:57;18.30;99.90
18884;DHT22;9574;47.282;9.640;2022-08-19T00:56:25;18.20;99.90
18884;DHT22;9574;47.282;9.640;2022-08-19T00:58:54;18.20;99.90
18884;DHT22;9574;47.282;9.640;2022-08-19T01:01:21;18.30;99.90
18884;DHT22;9574;47.282;9.640;2022-08-19T01:03:48;18.10;99.90
18884;DHT22;9574;47.282;9.640;2022-08-19T01:06:15;18.00;99.90
18884;DHT22;9574;47.282;9.640;2022-08-19T01:08:44;17.90;99.90
18884;DHT22;9574;47.282;9.640;2022-08-19T01:11:12;18.00;99.90
18884;DHT22;9574;47.282;9.640;2022-08-19T01:13:40;18.30;99.90
18884;DHT22;9574;47.282;9.640;2022-08-19T01:16:08;18.30;99.90
18884;DHT22;9574;47.282;9.640;2022-08-19T01:18:39;18.10;99.90
18884;DHT22;9574;47.282;9.640;2022-08-19T01:21:11;18.00;99.90
18884;DHT22;9574;47.282;9.640;2022-08-19T01:23:42;18.00;99.90
18884;DHT22;9574;47.282;9.640;2022-08-19T01:26:12;18.00;99.90
18884;DHT22;9574;47.282;9.640;2022-08-19T01:28:41;18.10;99.90
18884;DHT22;9574;47.282;9.640;2022-08-19T01:31:10;18.30;99.90
18884;DHT22;9574;47.282;9.640;2022-08-19T01:33:39;18.50;99.90
18884;DHT22;9574;47.282;9.640;2022-08-19T01:36:08;18.40;99.90
18884;DHT22;9574;47.282;9.640;2022-08-19T01:38:37;18.30;99.90
18884;DHT22;9574;47.282;9.640;2022-08-19T01:41:06;18.10;99.90
18884;DHT22;9574;47.282;9.640;2022-08-19T01:43:33;18.10;99.90
18884;DHT22;9574;47.282;9.640;2022-08-19T01:46:01;18.20;99.90
18884;DHT22;9574;47.282;9.640;2022-08-19T01:48:33;18.30;99.90
18884;DHT22;9574;47.282;9.640;2022-08-19T01:51:00;18.40;99.90
18884;DHT22;9574;47.282;9.640;2022-08-19T01:53:28;18.60;99.90
18884;DHT22;9574;47.282;9.640;2022-08-19T01:55:55;18.60;99.90
18884;DHT22;9574;47.282;9.640;2022-08-19T01:58:27;18.70;99.90
18884;DHT22;9574;47.282;9.640;2022-08-19T02:00:56;18.70;99.90
18884;DHT22;9574;47.282;9.640;2022-08-19T02:03:23;18.70;99.90
18884;DHT22;9574;47.282;9.640;2022-08-19T02:05:54;18.60;99.90
18884;DHT22;9574;47.282;9.640;2022-08-19T02:08:21;18.30;99.90
18884;DHT22;9574;47.282;9.640;2022-08-19T02:10:49;18.20;99.90
18884;DHT22;9574;47.282;9.640;2022-08-19T02:13:16;18.30;99.90
18884;DHT22;9574;47.282;9.640;2022-08-19T02:15:45;18.40;99.90
18884;DHT22;9574;47.282;9.640;2022-08-19T02:18:12;18.40;99.90
18884;DHT22;9574;47.282;9.640;2022-08-19T02:20:40;18.20;99.90
18884;DHT22;9574;47.282;9.640;2022-08-19T02:23:08;18.00;99.90
18884;DHT22;9574;47.282;9.640;2022-08-19T02:25:36;17.90;99.90
18884;DHT22;9574;47.282;9.640;2022-08-19T02:28:03;17.90;99.90
18884;DHT22;9574;47.282;9.640;2022-08-19T02:30:30;17.90;99.90
18884;DHT22;9574;47.282;9.640;2022-08-19T02:32:59;17.80;99.90
18884;DHT22;9574;47.282;9.640;2022-08-19T02:35:26;17.80;99.90
18884;DHT22;9574;47.282;9.640;2022-08-19T02:37:53;17.80;99.90
18884;DHT22;9574;47.282;9.640;2022-08-19T02:40:37;17.70;99.90
18884;DHT22;9574;47.282;9.640;2022-08-19T02:43:06;17.60;99.90
18884;DHT22;9574;47.282;9.640;2022-08-19T02:45:34;17.50;99.90
18884;DHT22;9574;47.282;9.640;2022-08-19T02:48:03;17.50;99.90
18884;DHT22;9574;47.282;9.640;2022-08-19T02:50:31;17.50;99.90
18884;DHT22;9574;47.282;9.640;2022-08-19T02:52:58;17.50;99.90
18884;DHT22;9574;47.282;9.640;2022-08-19T02:55:25;17.50;99.90
18884;DHT22;9574;47.282;9.640;2022-08-19T02:57:52;17.50;99.90
18884;DHT22;9574;47.282;9.640;2022-08-19T03:00:20;17.50;99.90
18884;DHT22;9574;47.282;9.640;2022-08-19T03:02:47;17.50;99.90
18884;DHT22;9574;47.282;9.640;2022-08-19T03:05:15;17.50;99.90
18884;DHT22;9574;47.282;9.640;2022-08-19T03:07:42;17.60;99.90
18884;DHT22;9574;47.282;9.640;2022-08-19T03:10:10;17.60;99.90
18884;DHT22;9574;47.282;9.640;2022-08-19T03:12:37;17.60;99.90
18884;DHT22;9574;47.282;9.640;2022-08-19T03:15:06;17.70;99.90
18884;DHT22;9574;47.282;9.640;2022-08-19T03:17:33;17.80;99.90
18884;DHT22;9574;47.282;9.640;2022-08-19T03:20:00;17.80;99.90
18884;DHT22;9574;47.282;9.640;2022-08-19T03:22:29;17.80;99.90
18884;DHT22;9574;47.282;9.640;2022-08-19T03:24:55;18.20;99.90
18884;DHT22;9574;47.282;9.640;2022-08-19T03:27:22;18.30;99.90
18884;DHT22;9574;47.282;9.640;2022-08-19T03:29:49;18.40;99.90
18884;DHT22;9574;47.282;9.640;2022-08-19T03:32:17;18.30;99.90
18884;DHT22;9574;47.282;9.640;2022-08-19T03:34:44;18.20;99.90
18884;DHT22;9574;47.282;9.640;2022-08-19T03:37:11;18.10;99.90
18884;DHT22;9574;47.282;9.640;2022-08-19T03:39:41;18.20;99.90
18884;DHT22;9574;47.282;9.640;2022-08-19T03:42:08;18.20;99.90
18884;DHT22;9574;47.282;9.640;2022-08-19T03:44:36;18.10;99.90
18884;DHT22;9574;47.282;9.640;2022-08-19T03:47:04;18.20;99.90
18884;DHT22;9574;47.282;9.640;2022-08-19T03:49:32;18.40;99.90
18884;DHT22;9574;47.282;9.640;2022-08-19T03:52:01;18.40;99.90
18884;DHT22;9574;47.282;9.640;2022-08-19T03:54:28;18.50;99.90
18884;DHT22;9574;47.282;9.640;2022-08-19T03:56:57;18.50;99.90
18884;DHT22;9574;47.282;9.640;2022-08-19T03:59:26;18.50;99.90
18884;DHT22;9574;47.282;9.640;2022-08-19T04:01:54;18.50;99.90
18884;DHT22;9574;47.282;9.640;2022-08-19T04:04:22;18.60;99.90
18884;DHT22;9574;47.282;9.640;2022-08-19T04:06:50;18.50;99.90
18884;DHT22;9574;47.282;9.640;2022-08-19T04:09:18;18.30;99.90
18884;DHT22;9574;47.282;9.640;2022-08-19T04:11:48;18.10;99.90
18884;DHT22;9574;47.282;9.640;2022-08-19T04:14:19;18.20;99.90
18884;DHT22;9574;47.282;9.640;2022-08-19T04:16:48;18.20;99.90
18884;DHT22;9574;47.282;9.640;2022-08-19T04:19:16;18.20;99.90
18884;DHT22;9574;47.282;9.640;2022-08-19T04:21:46;18.20;99.90
18884;DHT22;9574;47.282;9.640;2022-08-19T04:24:14;18.20;99.90
18884;DHT22;9574;47.282;9.640;2022-08-19T04:26:41;18.30;99.90
18884;DHT22;9574;47.282;9.640;2022-08-19T04:29:11;18.30;99.90
18884;DHT22;9574;47.282;9.640;2022-08-19T04:31:40;18.20;99.90
18884;DHT22;9574;47.282;9.640;2022-08-19T04:34:11;18.10;99.90
18884;DHT22;9574;47.282;9.640;2022-08-19T04:36:41;18.00;99.90
18884;DHT22;9574;47.282;9.640;2022-08-19T04:39:12;18.10;99.90
18884;DHT22;9574;47.282;9.640;2022-08-19T04:41:40;18.10;99.90
18884;DHT22;9574;47.282;9.640;2022-08-19T04:44:25;17.90;99.90
18884;DHT22;9574;47.282;9.640;2022-08-19T04:46:53;17.80;99.90
18884;DHT22;9574;47.282;9.640;2022-08-19T04:49:22;17.90;99.90
18884;DHT22;9574;47.282;9.640;2022-08-19T04:51:52;17.90;99.90
18884;DHT22;9574;47.282;9.640;2022-08-19T04:54:22;17.80;99.90
18884;DHT22;9574;47.282;9.640;2022-08-19T04:56:51;17.80;99.90
18884;DHT22;9574;47.282;9.640;2022-08-19T04:59:20;17.70;99.90
18884;DHT22;9574;47.282;9.640;2022-08-19T05:01:47;17.70;99.90
18884;DHT22;9574;47.282;9.640;2022-08-19T05:04:18;17.70;99.90
18884;DHT22;9574;47.282;9.640;2022-08-19T05:06:46;18.00;99.90
18884;DHT22;9574;47.282;9.640;2022-08-19T05:09:14;18.00;99.90
18884;DHT22;9574;47.282;9.640;2022-08-19T05:11:41;18.00;99.90
18884;DHT22;9574;47.282;9.640;2022-08-19T05:14:09;18.10;99.90
18884;DHT22;9574;47.282;9.640;2022-08-19T05:16:38;18.30;99.90
18884;DHT22;9574;47.282;9.640;2022-08-19T05:19:05;18.30;99.90
18884;DHT22;9574;47.282;9.640;2022-08-19T05:21:50;18.40;99.90
18884;DHT22;9574;47.282;9.640;2022-08-19T05:24:36;18.40;99.90
18884;DHT22;9574;47.282;9.640;2022-08-19T05:27:04;18.40;99.90
18884;DHT22;9574;47.282;9.640;2022-08-19T05:29:32;18.40;99.90
18884;DHT22;9574;47.282;9.640;2022-08-19T05:32:00;18.40;99.90
18884;DHT22;9574;47.282;9.640;2022-08-19T05:34:27;18.40;99.90
18884;DHT22;9574;47.282;9.640;2022-08-19T05:36:57;18.30;99.90
18884;DHT22;9574;47.282;9.640;2022-08-19T05:39:26;18.20;99.90
18884;DHT22;9574;47.282;9.640;2022-08-19T05:41:55;18.30;99.90
18884;DHT22;9574;47.282;9.640;2022-08-19T05:44:24;18.40;99.90
18884;DHT22;9574;47.282;9.640;2022-08-19T05:46:52;18.50;99.90
18884;DHT22;9574;47.282;9.640;2022-08-19T05:49:21;18.40;99.90
18884;DHT22;9574;47.282;9.640;2022-08-19T05:51:49;18.40;99.90
18884;DHT22;9574;47.282;9.640;2022-08-19T05:54:18;18.30;99.90
18884;DHT22;9574;47.282;9.640;2022-08-19T05:56:46;18.20;99.90
18884;DHT22;9574;47.282;9.640;2022-08-19T05:59:15;18.10;99.90
18884;DHT22;9574;47.282;9.640;2022-08-19T06:01:44;18.00;99.90
18884;DHT22;9574;47.282;9.640;2022-08-19T06:04:12;18.00;99.90
18884;DHT22;9574;47.282;9.640;2022-08-19T06:06:40;17.90;99.90
18884;DHT22;9574;47.282;9.640;2022-08-19T06:09:07;17.90;99.90
18884;DHT22;9574;47.282;9.640;2022-08-19T06:11:40;17.80;99.90
18884;DHT22;9574;47.282;9.640;2022-08-19T06:14:11;17.90;99.90
18884;DHT22;9574;47.282;9.640;2022-08-19T06:16:40;17.80;99.90
18884;DHT22;9574;47.282;9.640;2022-08-19T06:19:10;17.90;99.90
18884;DHT22;9574;47.282;9.640;2022-08-19T06:21:39;17.90;99.90
18884;DHT22;9574;47.282;9.640;2022-08-19T06:24:13;17.90;99.90
18884;DHT22;9574;47.282;9.640;2022-08-19T06:26:45;17.80;99.90
18884;DHT22;9574;47.282;9.640;2022-08-19T06:29:14;17.70;99.90
18884;DHT22;9574;47.282;9.640;2022-08-19T06:31:43;17.90;99.90
18884;DHT22;9574;47.282;9.640;2022-08-19T06:34:11;18.20;99.90
18884;DHT22;9574;47.282;9.640;2022-08-19T06:36:40;18.30;99.90
18884;DHT22;9574;47.282;9.640;2022-08-19T06:39:09;18.10;99.90
18884;DHT22;9574;47.282;9.640;2022-08-19T06:41:40;18.10;99.90
18884;DHT22;9574;47.282;9.640;2022-08-19T06:44:09;18.20;99.90
18884;DHT22;9574;47.282;9.640;2022-08-19T06:46:37;18.20;99.90
18884;DHT22;9574;47.282;9.640;2022-08-19T06:49:05;18.30;99.90
18884;DHT22;9574;47.282;9.640;2022-08-19T06:51:35;18.30;99.90
18884;DHT22;9574;47.282;9.640;2022-08-19T06:54:02;18.10;99.90
18884;DHT22;9574;47.282;9.640;2022-08-19T06:56:30;18.00;99.90
18884;DHT22;9574;47.282;9.640;2022-08-19T07:02:05;18.20;99.90
18884;DHT22;9574;47.282;9.640;2022-08-19T07:04:33;18.00;99.90
18884;DHT22;9574;47.282;9.640;2022-08-19T07:07:03;17.90;99.90
18884;DHT22;9574;47.282;9.640;2022-08-19T07:09:32;18.00;99.90
18884;DHT22;9574;47.282;9.640;2022-08-19T07:11:59;18.00;99.90
18884;DHT22;9574;47.282;9.640;2022-08-19T07:14:27;18.20;99.90
18884;DHT22;9574;47.282;9.640;2022-08-19T07:16:56;18.20;99.90
18884;DHT22;9574;47.282;9.640;2022-08-19T07:19:26;18.10;99.90
18884;DHT22;9574;47.282;9.640;2022-08-19T07:21:54;18.20;99.90
18884;DHT22;9574;47.282;9.640;2022-08-19T07:24:22;18.30;99.90
18884;DHT22;9574;47.282;9.640;2022-08-19T07:26:51;18.10;99.90
18884;DHT22;9574;47.282;9.640;2022-08-19T07:29:20;18.00;99.90
18884;DHT22;9574;47.282;9.640;2022-08-19T07:31:48;17.80;99.90
18884;DHT22;9574;47.282;9.640;2022-08-19T07:34:16;17.70;99.90
18884;DHT22;9574;47.282;9.640;2022-08-19T07:36:45;17.60;99.90
18884;DHT22;9574;47.282;9.640;2022-08-19T07:39:15;17.50;99.90
18884;DHT22;9574;47.282;9.640;2022-08-19T07:41:42;17.50;99.90
18884;DHT22;9574;47.282;9.640;2022-08-19T07:44:10;17.40;99.90
18884;DHT22;9574;47.282;9.640;2022-08-19T07:46:39;17.50;99.90
18884;DHT22;9574;47.282;9.640;2022-08-19T07:49:07;17.50;99.90
18884;DHT22;9574;47.282;9.640;2022-08-19T07:51:39;17.40;99.90
18884;DHT22;9574;47.282;9.640;2022-08-19T07:54:07;17.50;99.90
18884;DHT22;9574;47.282;9.640;2022-08-19T07:56:34;17.50;99.90
18884;DHT22;9574;47.282;9.640;2022-08-19T07:59:01;17.50;99.90
18884;DHT22;9574;47.282;9.640;2022-08-19T08:01:28;17.50;99.90
18884;DHT22;9574;47.282;9.640;2022-08-19T08:03:56;17.50;99.90
18884;DHT22;9574;47.282;9.640;2022-08-19T08:06:41;17.50;99.90
18884;DHT22;9574;47.282;9.640;2022-08-19T08:09:30;17.50;99.90
18884;DHT22;9574;47.282;9.640;2022-08-19T08:12:00;17.60;99.90
18884;DHT22;9574;47.282;9.640;2022-08-19T08:14:30;17.50;99.90
18884;DHT22;9574;47.282;9.640;2022-08-19T08:16:58;17.50;99.90
18884;DHT22;9574;47.282;9.640;2022-08-19T08:19:27;17.50;99.90
18884;DHT22;9574;47.282;9.640;2022-08-19T08:21:57;17.50;99.90
18884;DHT22;9574;47.282;9.640;2022-08-19T08:24:25;17.60;99.90
18884;DHT22;9574;47.282;9.640;2022-08-19T08:26:53;17.60;99.90
18884;DHT22;9574;47.282;9.640;2022-08-19T08:29:20;17.60;99.90
18884;DHT22;9574;47.282;9.640;2022-08-19T08:31:47;17.50;99.90
18884;DHT22;9574;47.282;9.640;2022-08-19T08:34:14;17.60;99.90
18884;DHT22;9574;47.282;9.640;2022-08-19T08:39:19;17.50;99.90
18884;DHT22;9574;47.282;9.640;2022-08-19T08:41:51;17.70;99.90
18884;DHT22;9574;47.282;9.640;2022-08-19T08:44:23;17.80;99.90
18884;DHT22;9574;47.282;9.640;2022-08-19T08:46:55;17.70;99.90
18884;DHT22;9574;47.282;9.640;2022-08-19T08:49:30;17.60;99.90
18884;DHT22;9574;47.282;9.640;2022-08-19T08:52:03;17.50;99.90
18884;DHT22;9574;47.282;9.640;2022-08-19T08:54:34;17.50;99.90
18884;DHT22;9574;47.282;9.640;2022-08-19T08:57:04;17.40;99.90
18884;DHT22;9574;47.282;9.640;2022-08-19T08:59:37;17.40;99.90
18884;DHT22;9574;47.282;9.640;2022-08-19T09:02:07;17.60;99.90
18884;DHT22;9574;47.282;9.640;2022-08-19T09:04:35;17.80;99.90
18884;DHT22;9574;47.282;9.640;2022-08-19T09:07:15;17.90;99.90
18884;DHT22;9574;47.282;9.640;2022-08-19T09:09:49;17.80;99.90
18884;DHT22;9574;47.282;9.640;2022-08-19T09:12:22;17.60;99.90
18884;DHT22;9574;47.282;9.640;2022-08-19T09:14:56;17.50;99.90
18884;DHT22;9574;47.282;9.640;2022-08-19T09:17:26;17.70;99.90
18884;DHT22;9574;47.282;9.640;2022-08-19T09:19:58;17.70;99.90
18884;DHT22;9574;47.282;9.640;2022-08-19T09:22:27;17.70;99.90
18884;DHT22;9574;47.282;9.640;2022-08-19T09:24:54;17.70;99.90
18884;DHT22;9574;47.282;9.640;2022-08-19T09:27:22;17.60;99.90
18884;DHT22;9574;47.282;9.640;2022-08-19T09:29:50;17.50;99.90
18884;DHT22;9574;47.282;9.640;2022-08-19T09:32:20;17.40;99.90
18884;DHT22;9574;47.282;9.640;2022-08-19T09:34:48;17.50;99.90
18884;DHT22;9574;47.282;9.640;2022-08-19T09:37:15;17.50;99.90
18884;DHT22;9574;47.282;9.640;2022-08-19T09:39:42;17.50;99.90
18884;DHT22;9574;47.282;9.640;2022-08-19T09:42:10;17.70;99.90
18884;DHT22;9574;47.282;9.640;2022-08-19T09:44:39;17.60;99.90
18884;DHT22;9574;47.282;9.640;2022-08-19T09:47:07;17.50;99.90
18884;DHT22;9574;47.282;9.640;2022-08-19T09:49:35;17.40;99.90
18884;DHT22;9574;47.282;9.640;2022-08-19T09:52:03;17.30;99.90
18884;DHT22;9574;47.282;9.640;2022-08-19T09:54:30;17.30;99.90
18884;DHT22;9574;47.282;9.640;2022-08-19T09:56:58;17.30;99.90
18884;DHT22;9574;47.282;9.640;2022-08-19T09:59:27;17.30;99.90
18884;DHT22;9574;47.282;9.640;2022-08-19T10:01:54;17.20;99.90
18884;DHT22;9574;47.282;9.640;2022-08-19T10:04:22;17.10;99.90
18884;DHT22;9574;47.282;9.640;2022-08-19T10:07:11;17.10;99.90
18884;DHT22;9574;47.282;9.640;2022-08-19T10:09:38;17.00;99.90
18884;DHT22;9574;47.282;9.640;2022-08-19T10:12:07;17.00;99.90
18884;DHT22;9574;47.282;9.640;2022-08-19T10:14:35;16.90;99.90
18884;DHT22;9574;47.282;9.640;2022-08-19T10:17:03;16.90;99.90
18884;DHT22;9574;47.282;9.640;2022-08-19T10:19:30;16.90;99.90
18884;DHT22;9574;47.282;9.640;2022-08-19T10:22:03;16.90;99.90
18884;DHT22;9574;47.282;9.640;2022-08-19T10:24:32;17.00;99.90
18884;DHT22;9574;47.282;9.640;2022-08-19T10:26:59;16.90;99.90
18884;DHT22;9574;47.282;9.640;2022-08-19T10:29:29;17.10;99.90
18884;DHT22;9574;47.282;9.640;2022-08-19T10:31:57;17.00;99.90
18884;DHT22;9574;47.282;9.640;2022-08-19T10:34:26;17.00;99.90
18884;DHT22;9574;47.282;9.640;2022-08-19T10:36:53;17.00;99.90
18884;DHT22;9574;47.282;9.640;2022-08-19T10:39:20;17.00;99.90
18884;DHT22;9574;47.282;9.640;2022-08-19T10:41:48;17.00;99.90
18884;DHT22;9574;47.282;9.640;2022-08-19T10:44:15;17.10;99.90
18884;DHT22;9574;47.282;9.640;2022-08-19T10:46:44;17.00;99.90
18884;DHT22;9574;47.282;9.640;2022-08-19T10:49:12;17.00;99.90
18884;DHT22;9574;47.282;9.640;2022-08-19T10:51:40;17.00;99.90
18884;DHT22;9574;47.282;9.640;2022-08-19T10:54:26;17.00;99.90
18884;DHT22;9574;47.282;9.640;2022-08-19T10:57:16;16.90;99.90
18884;DHT22;9574;47.282;9.640;2022-08-19T10:59:42;16.90;99.90
18884;DHT22;9574;47.282;9.640;2022-08-19T11:02:10;17.10;99.90
18884;DHT22;9574;47.282;9.640;2022-08-19T11:04:38;17.20;99.90
18884;DHT22;9574;47.282;9.640;2022-08-19T11:07:06;17.00;99.90
18884;DHT22;9574;47.282;9.640;2022-08-19T11:09:37;17.00;99.90
18884;DHT22;9574;47.282;9.640;2022-08-19T11:12:05;17.10;99.90
18884;DHT22;9574;47.282;9.640;2022-08-19T11:14:35;17.00;99.90
18884;DHT22;9574;47.282;9.640;2022-08-19T11:17:04;17.10;99.90
18884;DHT22;9574;47.282;9.640;2022-08-19T11:19:31;17.20;99.90
18884;DHT22;9574;47.282;9.640;2022-08-19T11:21:59;17.30;99.90
18884;DHT22;9574;47.282;9.640;2022-08-19T11:24:28;17.20;99.90
18884;DHT22;9574;47.282;9.640;2022-08-19T11:27:01;17.10;99.90
18884;DHT22;9574;47.282;9.640;2022-08-19T11:29:30;17.40;99.90
18884;DHT22;9574;47.282;9.640;2022-08-19T11:31:59;17.40;99.90
18884;DHT22;9574;47.282;9.640;2022-08-19T11:34:27;17.60;99.90
18884;DHT22;9574;47.282;9.640;2022-08-19T11:36:56;17.60;99.90
18884;DHT22;9574;47.282;9.640;2022-08-19T11:39:26;17.60;99.90
18884;DHT22;9574;47.282;9.640;2022-08-19T11:41:54;17.50;99.90
18884;DHT22;9574;47.282;9.640;2022-08-19T11:44:21;17.30;99.90
18884;DHT22;9574;47.282;9.640;2022-08-19T11:46:48;17.20;99.90
18884;DHT22;9574;47.282;9.640;2022-08-19T11:49:18;17.20;99.90
18884;DHT22;9574;47.282;9.640;2022-08-19T11:51:47;17.10;99.90
18884;DHT22;9574;47.282;9.640;2022-08-19T11:54:16;17.00;99.90
18884;DHT22;9574;47.282;9.640;2022-08-19T11:56:43;16.90;99.90
18884;DHT22;9574;47.282;9.640;2022-08-19T11:59:13;16.90;99.90
18884;DHT22;9574;47.282;9.640;2022-08-19T12:01:40;16.80;99.90
18884;DHT22;9574;47.282;9.640;2022-08-19T12:04:08;16.80;99.90
18884;DHT22;9574;47.282;9.640;2022-08-19T12:06:38;16.70;99.90
18884;DHT22;9574;47.282;9.640;2022-08-19T12:09:07;16.70;99.90
18884;DHT22;9574;47.282;9.640;2022-08-19T12:11:35;16.70;99.90
18884;DHT22;9574;47.282;9.640;2022-08-19T12:14:09;16.70;99.90
18884;DHT22;9574;47.282;9.640;2022-08-19T12:16:38;16.80;99.90
18884;DHT22;9574;47.282;9.640;2022-08-19T12:19:07;16.90;99.90
18884;DHT22;9574;47.282;9.640;2022-08-19T12:21:36;16.80;99.90
18884;DHT22;9574;47.282;9.640;2022-08-19T12:24:06;16.70;99.90
18884;DHT22;9574;47.282;9.640;2022-08-19T12:26:34;16.90;99.90
18884;DHT22;9574;47.282;9.640;2022-08-19T12:29:02;17.20;99.90
18884;DHT22;9574;47.282;9.640;2022-08-19T12:31:30;17.10;99.90
18884;DHT22;9574;47.282;9.640;2022-08-19T12:33:57;17.00;99.90
18884;DHT22;9574;47.282;9.640;2022-08-19T12:36:25;16.80;99.90
18884;DHT22;9574;47.282;9.640;2022-08-19T12:38:53;16.70;99.90
18884;DHT22;9574;47.282;9.640;2022-08-19T12:41:21;16.60;99.90
18884;DHT22;9574;47.282;9.640;2022-08-19T12:43:48;16.60;99.90
18884;DHT22;9574;47.282;9.640;2022-08-19T12:46:16;16.60;99.90
18884;DHT22;9574;47.282;9.640;2022-08-19T12:48:44;16.70;99.90
18884;DHT22;9574;47.282;9.640;2022-08-19T12:51:13;16.90;99.90
18884;DHT22;9574;47.282;9.640;2022-08-19T12:53:41;17.00;99.90
18884;DHT22;9574;47.282;9.640;2022-08-19T12:56:11;17.00;99.90
18884;DHT22;9574;47.282;9.640;2022-08-19T12:58:41;16.90;99.90
18884;DHT22;9574;47.282;9.640;2022-08-19T13:01:09;16.80;99.90
18884;DHT22;9574;47.282;9.640;2022-08-19T13:03:37;16.70;99.90
18884;DHT22;9574;47.282;9.640;2022-08-19T13:06:10;16.70;99.90
18884;DHT22;9574;47.282;9.640;2022-08-19T13:08:41;16.80;99.90
18884;DHT22;9574;47.282;9.640;2022-08-19T13:11:14;16.70;99.90
18884;DHT22;9574;47.282;9.640;2022-08-19T13:13:47;16.60;99.90
18884;DHT22;9574;47.282;9.640;2022-08-19T13:16:17;16.60;99.90
18884;DHT22;9574;47.282;9.640;2022-08-19T13:18:46;16.80;99.90
18884;DHT22;9574;47.282;9.640;2022-08-19T13:21:14;17.10;99.90
18884;DHT22;9574;47.282;9.640;2022-08-19T13:23:41;17.10;99.90
18884;DHT22;9574;47.282;9.640;2022-08-19T13:26:12;17.20;99.90
18884;DHT22;9574;47.282;9.640;2022-08-19T13:28:40;17.20;99.90
18884;DHT22;9574;47.282;9.640;2022-08-19T13:31:27;17.20;99.90
18884;DHT22;9574;47.282;9.640;2022-08-19T13:34:13;17.30;99.90
18884;DHT22;9574;47.282;9.640;2022-08-19T13:36:40;17.20;99.90
18884;DHT22;9574;47.282;9.640;2022-08-19T13:39:08;17.30;99.90
18884;DHT22;9574;47.282;9.640;2022-08-19T13:41:37;17.30;99.90
18884;DHT22;9574;47.282;9.640;2022-08-19T13:44:05;17.40;99.90
18884;DHT22;9574;47.282;9.640;2022-08-19T13:46:32;17.30;99.90
18884;DHT22;9574;47.282;9.640;2022-08-19T13:48:59;17.20;99.90
18884;DHT22;9574;47.282;9.640;2022-08-19T13:51:26;17.10;99.90
18884;DHT22;9574;47.282;9.640;2022-08-19T13:53:53;17.00;99.90
18884;DHT22;9574;47.282;9.640;2022-08-19T13:56:21;17.10;99.90
18884;DHT22;9574;47.282;9.640;2022-08-19T13:58:49;17.10;99.90
18884;DHT22;9574;47.282;9.640;2022-08-19T14:01:19;17.10;99.90
18884;DHT22;9574;47.282;9.640;2022-08-19T14:03:46;17.20;99.90
18884;DHT22;9574;47.282;9.640;2022-08-19T14:06:13;17.10;99.90
18884;DHT22;9574;47.282;9.640;2022-08-19T14:08:40;17.20;99.90
18884;DHT22;9574;47.282;9.640;2022-08-19T14:11:07;17.20;99.90
18884;DHT22;9574;47.282;9.640;2022-08-19T14:13:34;17.30;99.90
18884;DHT22;9574;47.282;9.640;2022-08-19T14:16:06;17.30;99.90
18884;DHT22;9574;47.282;9.640;2022-08-19T14:18:34;17.40;99.90
18884;DHT22;9574;47.282;9.640;2022-08-19T14:21:01;17.40;99.90
18884;DHT22;9574;47.282;9.640;2022-08-19T14:23:28;17.50;99.90
18884;DHT22;9574;47.282;9.640;2022-08-19T14:26:03;17.50;99.90
18884;DHT22;9574;47.282;9.640;2022-08-19T14:28:30;17.30;99.90
18884;DHT22;9574;47.282;9.640;2022-08-19T14:30:57;17.20;99.90
18884;DHT22;9574;47.282;9.640;2022-08-19T14:33:26;17.30;99.90
18884;DHT22;9574;47.282;9.640;2022-08-19T14:35:53;17.10;99.90
18884;DHT22;9574;47.282;9.640;2022-08-19T14:38:20;17.10;99.90
18884;DHT22;9574;47.282;9.640;2022-08-19T14:40:47;17.20;99.90
18884;DHT22;9574;47.282;9.640;2022-08-19T14:43:15;17.30;99.90
18884;DHT22;9574;47.282;9.640;2022-08-19T14:45:43;17.10;99.90
18884;DHT22;9574;47.282;9.640;2022-08-19T14:48:10;17.10;99.90
18884;DHT22;9574;47.282;9.640;2022-08-19T14:50:39;17.20;99.90
18884;DHT22;9574;47.282;9.640;2022-08-19T14:53:08;17.40;99.90
18884;DHT22;9574;47.282;9.640;2022-08-19T14:55:35;17.40;99.90
18884;DHT22;9574;47.282;9.640;2022-08-19T14:58:02;17.40;99.90
18884;DHT22;9574;47.282;9.640;2022-08-19T15:00:29;17.50;99.90
18884;DHT22;9574;47.282;9.640;2022-08-19T15:02:56;17.50;99.90
18884;DHT22;9574;47.282;9.640;2022-08-19T15:05:24;17.30;99.90
18884;DHT22;9574;47.282;9.640;2022-08-19T15:07:53;17.20;99.90
18884;DHT22;9574;47.282;9.640;2022-08-19T15:10:22;16.90;99.90
18884;DHT22;9574;47.282;9.640;2022-08-19T15:12:50;17.00;99.90
18884;DHT22;9574;47.282;9.640;2022-08-19T15:15:18;17.00;99.90
18884;DHT22;9574;47.282;9.640;2022-08-19T15:17:45;17.10;99.90
18884;DHT22;9574;47.282;9.640;2022-08-19T15:20:15;16.90;99.90
18884;DHT22;9574;47.282;9.640;2022-08-19T15:22:42;16.90;99.90
18884;DHT22;9574;47.282;9.640;2022-08-19T15:25:13;16.90;99.90
18884;DHT22;9574;47.282;9.640;2022-08-19T15:27:41;17.00;99.90
18884;DHT22;9574;47.282;9.640;2022-08-19T15:30:09;17.10;99.90
18884;DHT22;9574;47.282;9.640;2022-08-19T15:32:38;17.20;99.90
18884;DHT22;9574;47.282;9.640;2022-08-19T15:35:06;17.20;99.90
18884;DHT22;9574;47.282;9.640;2022-08-19T15:37:33;17.20;99.90
18884;DHT22;9574;47.282;9.640;2022-08-19T15:40:01;17.20;99.90
18884;DHT22;9574;47.282;9.640;2022-08-19T15:42:29;17.30;99.90
18884;DHT22;9574;47.282;9.640;2022-08-19T15:44:56;17.10;99.90
18884;DHT22;9574;47.282;9.640;2022-08-19T15:47:23;16.90;99.90
18884;DHT22;9574;47.282;9.640;2022-08-19T15:49:50;16.80;99.90
18884;DHT22;9574;47.282;9.640;2022-08-19T15:52:19;16.80;99.90
18884;DHT22;9574;47.282;9.640;2022-08-19T15:54:46;16.80;99.90
18884;DHT22;9574;47.282;9.640;2022-08-19T15:57:13;16.80;99.90
18884;DHT22;9574;47.282;9.640;2022-08-19T15:59:59;16.90;99.90
18884;DHT22;9574;47.282;9.640;2022-08-19T16:02:43;16.80;99.90